Time;durP1;ratioP1;P1;durP2;ratioP2;P2;SDS_P1;SDS_P2;PMS_P1;PMS_P2;Temp;Humidity;BMP_temperature;BMP_pressure;BME280_temperature;BME280_humidity;BME280_pressure;Samples;Min_cycle;Max_cycle;Signal;HPM_P1;HPM_P2
2021/10/09 00:03:24;;;;;;;24.43;16.53;;;;;;;12.95;55.13;99017.09;8300334;28;20201;-90
2021/10/09 00:07:26;;;;;;;22.30;15.77;;;;;;;12.87;55.39;99010.41;8323049;28;20197;-90
2021/10/09 00:11:35;;;;;;;20.80;14.57;;;;;;;12.80;55.40;99010.69;8322821;28;20241;-90
2021/10/09 00:15:40;;;;;;;20.40;14.00;;;;;;;12.83;55.16;99010.56;8323405;28;20204;-90
2021/10/09 00:19:43;;;;;;;21.50;14.13;;;;;;;12.83;55.24;99015.75;8323365;28;20232;-89
2021/10/09 00:23:46;;;;;;;16.77;13.50;;;;;;;12.86;55.20;99015.66;8321271;28;20201;-89
2021/10/09 00:27:51;;;;;;;22.30;13.83;;;;;;;12.76;54.50;99009.94;8321512;28;20197;-90
2021/10/09 00:31:56;;;;;;;15.53;13.27;;;;;;;12.68;54.85;99009.41;8321815;28;20515;-88
2021/10/09 00:35:58;;;;;;;19.10;13.13;;;;;;;12.70;55.41;99023.19;8321886;28;20493;-90
2021/10/09 00:40:02;;;;;;;17.87;13.57;;;;;;;12.64;55.25;99012.97;8317680;28;20220;-89
2021/10/09 00:44:10;;;;;;;17.50;13.27;;;;;;;12.57;55.22;99012.38;8321687;28;20197;-89
2021/10/09 00:48:14;;;;;;;20.00;13.57;;;;;;;12.52;55.36;99009.91;8321759;28;20197;-89
2021/10/09 00:52:18;;;;;;;17.50;13.17;;;;;;;12.42;55.42;99000.75;8321305;28;20201;-89
2021/10/09 00:56:21;;;;;;;17.40;13.70;;;;;;;12.49;55.12;99004.00;8321523;28;20523;-92
2021/10/09 01:00:24;;;;;;;21.57;13.13;;;;;;;12.47;55.45;99006.66;8321644;28;20236;-92
2021/10/09 01:04:29;;;;;;;21.67;13.53;;;;;;;12.46;54.74;98996.31;8321483;28;20228;-92
2021/10/09 01:08:32;;;;;;;15.23;13.63;;;;;;;12.47;54.14;98998.88;8321624;28;20279;-92
2021/10/09 01:12:34;;;;;;;18.90;14.07;;;;;;;12.40;54.21;98993.94;8320959;28;20550;-92
2021/10/09 01:16:40;;;;;;;18.03;13.77;;;;;;;12.33;54.53;98988.09;8320855;28;20200;-92
2021/10/09 01:20:46;;;;;;;19.00;13.73;;;;;;;12.33;54.94;98988.09;8321086;28;20228;-90
2021/10/09 01:24:50;;;;;;;20.87;14.20;;;;;;;12.29;55.02;98989.94;8320501;28;20201;-90
2021/10/09 01:28:53;;;;;;;16.77;13.17;;;;;;;12.24;54.29;98994.47;8320632;28;20200;-91
2021/10/09 01:32:56;;;;;;;17.33;13.00;;;;;;;12.21;54.37;98989.38;8319359;28;20197;-90
2021/10/09 01:37:00;;;;;;;16.03;12.73;;;;;;;12.08;54.32;98985.50;8319419;28;20208;-91
2021/10/09 01:41:04;;;;;;;16.17;12.77;;;;;;;12.13;54.17;98983.63;8318881;28;20228;-90
2021/10/09 01:45:08;;;;;;;16.03;13.07;;;;;;;12.16;54.27;98990.44;8319023;28;20206;-89
2021/10/09 01:49:11;;;;;;;15.30;12.20;;;;;;;12.07;54.18;98987.28;8318658;28;20197;-90
2021/10/09 01:53:15;;;;;;;18.80;13.00;;;;;;;12.06;53.99;98993.34;8318662;28;20530;-90
2021/10/09 01:57:18;;;;;;;15.87;12.70;;;;;;;11.94;53.81;98983.38;8318731;28;20207;-90
2021/10/09 02:01:21;;;;;;;16.27;12.27;;;;;;;11.99;53.57;98980.63;8318350;28;20225;-89
2021/10/09 02:05:24;;;;;;;13.23;11.80;;;;;;;11.89;53.51;98980.94;8318487;28;20202;-88
2021/10/09 02:09:29;;;;;;;15.80;12.47;;;;;;;11.89;53.19;98983.53;8317883;28;20216;-88
2021/10/09 02:13:38;;;;;;;18.30;12.03;;;;;;;11.74;53.47;98974.47;8317502;28;20232;-88
2021/10/09 02:18:15;;;;;;;13.67;12.13;;;;;;;11.80;53.48;98975.16;8325755;28;20204;-88
2021/10/09 02:26:39;;;;;;;13.87;11.87;;;;;;;11.66;53.35;98968.69;8324826;28;20197;-87
2021/10/09 02:30:42;;;;;;;13.93;12.20;;;;;;;11.63;53.46;98973.13;8318598;28;20193;-88
2021/10/09 02:34:45;;;;;;;15.93;11.63;;;;;;;11.58;53.60;98975.03;8317554;28;20197;-88
2021/10/09 02:38:48;;;;;;;14.93;12.63;;;;;;;11.61;53.47;98977.53;8317297;28;20217;-87
2021/10/09 02:42:53;;;;;;;17.80;11.97;;;;;;;11.58;53.61;98973.28;8317493;28;20205;-88
2021/10/09 02:46:56;;;;;;;16.27;13.30;;;;;;;11.88;52.24;98973.16;8317060;28;20203;-88
2021/10/09 02:50:59;;;;;;;15.13;12.73;;;;;;;11.92;52.46;98975.66;8317509;28;20205;-88
2021/10/09 02:55:02;;;;;;;17.70;11.97;;;;;;;11.85;52.41;98968.09;8317190;28;20504;-87
2021/10/09 02:59:06;;;;;;;16.17;12.47;;;;;;;11.74;52.12;98969.28;8317041;28;20550;-87
2021/10/09 03:03:09;;;;;;;15.43;11.60;;;;;;;11.46;53.04;98968.47;8320169;28;20397;-87
2021/10/09 03:07:12;;;;;;;13.50;11.70;;;;;;;11.43;53.46;98977.22;8317483;28;20216;-85
2021/10/09 03:11:15;;;;;;;14.13;11.97;;;;;;;11.35;53.30;98974.03;8316466;28;20217;-87
2021/10/09 03:15:19;;;;;;;16.00;12.00;;;;;;;11.38;53.37;98973.91;8316329;28;20225;-87
2021/10/09 03:19:22;;;;;;;17.37;12.17;;;;;;;11.27;53.41;98968.22;8315639;28;20235;-84
2021/10/09 03:23:25;;;;;;;13.30;11.90;;;;;;;11.24;52.73;98970.91;8316047;28;20202;-84
2021/10/09 03:27:28;;;;;;;15.00;11.97;;;;;;;11.13;53.43;98969.47;8316193;28;20388;-84
2021/10/09 03:31:32;;;;;;;14.97;12.47;;;;;;;11.20;52.89;98970.16;8316076;28;20208;-85
2021/10/09 03:35:38;;;;;;;18.40;11.80;;;;;;;11.11;53.08;98976.47;8316077;28;20204;-85
2021/10/09 03:39:43;;;;;;;14.13;12.03;;;;;;;11.18;53.19;98977.13;8315769;28;20224;-86
2021/10/09 03:43:46;;;;;;;17.03;12.33;;;;;;;11.09;53.03;98964.44;8316156;28;20201;-86
2021/10/09 03:56:30;;;;;;;15.77;12.33;;;;;;;10.99;53.71;98971.66;8314329;28;20204;-86
2021/10/09 04:00:37;;;;;;;13.73;11.80;;;;;;;11.01;53.55;98954.31;8321813;28;20244;-88
2021/10/09 04:04:42;;;;;;;15.40;11.50;;;;;;;10.96;53.31;98972.59;8322152;28;20197;-88
2021/10/09 04:08:45;;;;;;;13.90;11.73;;;;;;;10.93;53.44;98971.84;8321948;28;20200;-89
2021/10/09 04:12:48;;;;;;;15.70;11.23;;;;;;;10.99;53.54;98976.00;8321367;28;20233;-88
2021/10/09 04:16:51;;;;;;;14.73;11.40;;;;;;;10.86;53.79;98978.09;8321421;28;20367;-87
2021/10/09 04:20:58;;;;;;;13.90;11.63;;;;;;;10.76;53.58;98975.78;8321217;28;20524;-87
2021/10/09 04:25:01;;;;;;;14.10;11.67;;;;;;;10.82;53.33;98974.75;8321328;28;20197;-88
2021/10/09 04:29:04;;;;;;;14.47;10.93;;;;;;;10.73;53.13;98981.03;8321085;28;20492;-86
2021/10/09 04:33:07;;;;;;;16.97;12.20;;;;;;;10.69;53.54;98976.00;8320952;28;20198;-87
2021/10/09 04:37:11;;;;;;;16.30;12.00;;;;;;;10.69;54.13;98978.59;8320868;28;20193;-88
2021/10/09 04:41:16;;;;;;;15.47;11.80;;;;;;;10.68;54.96;98980.34;8320600;28;20224;-87
2021/10/09 04:45:19;;;;;;;18.00;11.97;;;;;;;10.69;55.00;98974.25;8320542;28;20200;-88
2021/10/09 04:49:22;;;;;;;16.60;11.87;;;;;;;10.61;55.06;98977.97;8320419;28;20386;-88
2021/10/09 04:53:26;;;;;;;15.33;12.47;;;;;;;10.64;54.48;98978.75;8320465;28;20201;-88
2021/10/09 04:57:29;;;;;;;13.30;11.37;;;;;;;10.59;54.50;98975.41;8320410;28;20497;-88
2021/10/09 05:01:32;;;;;;;16.27;11.87;;;;;;;10.65;54.58;98975.22;8319794;28;20228;-88
2021/10/09 05:05:35;;;;;;;15.60;10.80;;;;;;;10.65;53.78;98979.56;8320145;28;20197;-88
2021/10/09 05:09:39;;;;;;;12.17;10.50;;;;;;;10.59;53.32;98978.00;8319664;28;20531;-88
2021/10/09 05:13:44;;;;;;;18.00;11.37;;;;;;;10.49;53.31;98985.19;8319621;28;20394;-89
2021/10/09 05:17:47;;;;;;;16.97;11.70;;;;;;;10.49;53.68;98995.56;8319469;28;20201;-86
2021/10/09 05:21:50;;;;;;;15.03;12.13;;;;;;;10.46;54.18;98992.19;8319326;28;20229;-85
2021/10/09 05:25:54;;;;;;;15.77;11.53;;;;;;;10.45;54.14;98982.72;8319695;28;20200;-87
2021/10/09 05:30:03;;;;;;;19.97;13.13;;;;;;;10.48;54.31;98983.47;8306450;28;20228;-86
2021/10/09 05:34:05;;;;;;;18.00;15.10;;;;;;;10.56;54.08;98988.44;8319134;28;20201;-85
2021/10/09 05:38:09;;;;;;;23.27;15.23;;;;;;;10.45;54.36;98996.53;8318893;28;20201;-89
2021/10/09 05:42:13;;;;;;;18.90;14.87;;;;;;;10.49;54.75;98992.97;8319154;28;20201;-89
2021/10/09 05:46:18;;;;;;;20.40;14.87;;;;;;;10.57;54.97;98997.94;8319099;28;20198;-90
2021/10/09 05:50:24;;;;;;;25.37;15.37;;;;;;;10.59;55.38;99003.91;8319077;28;20224;-89
2021/10/09 05:54:31;;;;;;;19.40;15.93;;;;;;;10.70;56.50;99011.38;8323948;28;20196;-88
2021/10/09 05:58:45;;;;;;;26.70;16.67;;;;;;;10.77;56.51;99010.31;8351673;28;20204;-89
2021/10/09 06:42:35;;;;;;;26.47;17.07;;;;;;;12.24;54.76;99050.75;8318293;28;20223;-88
2021/10/09 06:59:37;;;;;;;27.70;17.60;;;;;;;12.54;54.88;99051.44;8284637;28;20206;-86
2021/10/09 07:03:42;;;;;;;26.37;17.60;;;;;;;12.55;54.38;99054.91;8310744;28;20201;-88
2021/10/09 07:07:48;;;;;;;26.13;17.83;;;;;;;12.81;54.12;99048.75;8317070;28;20201;-88
2021/10/09 07:11:51;;;;;;;26.17;18.67;;;;;;;12.96;54.16;99060.38;8322788;28;20236;-87
2021/10/09 07:15:54;;;;;;;30.47;18.40;;;;;;;13.17;53.98;99066.53;8349418;28;20393;-87
2021/10/09 07:19:56;;;;;;;33.27;19.43;;;;;;;12.81;52.97;99060.03;8335014;28;20193;-89
2021/10/09 07:24:01;;;;;;;27.23;19.30;;;;;;;12.93;52.74;99071.72;8329604;28;20200;-87
2021/10/09 07:28:04;;;;;;;33.97;19.77;;;;;;;13.24;52.28;99076.63;8321045;28;20201;-89
2021/10/09 07:32:08;;;;;;;27.43;18.53;;;;;;;13.67;51.33;99071.59;8334916;28;20558;-90
2021/10/09 07:36:11;;;;;;;28.07;18.33;;;;;;;13.69;50.65;99069.78;8356102;28;20200;-89
2021/10/09 07:40:16;;;;;;;26.63;18.80;;;;;;;13.96;50.13;99072.19;8355845;28;20196;-88
2021/10/09 07:44:21;;;;;;;25.73;18.37;;;;;;;14.23;49.82;99067.59;8355654;28;20200;-89
2021/10/09 07:48:24;;;;;;;26.47;18.30;;;;;;;14.36;48.37;99071.38;8355227;28;20525;-86
2021/10/09 07:52:26;;;;;;;32.03;19.07;;;;;;;15.05;46.31;99068.38;8354952;28;20228;-86
2021/10/09 07:56:31;;;;;;;32.27;18.07;;;;;;;15.24;46.13;99063.16;8355283;28;20200;-91
2021/10/09 08:00:34;;;;;;;24.30;17.67;;;;;;;15.19;44.38;99067.78;8354669;28;20211;-91
2021/10/09 08:04:39;;;;;;;25.40;16.90;;;;;;;15.64;43.47;99066.53;8322378;28;20201;-89
2021/10/09 08:08:43;;;;;;;25.90;16.23;;;;;;;15.95;41.12;99066.84;8322355;28;20272;-89
2021/10/09 08:12:47;;;;;;;23.03;14.27;;;;;;;16.11;41.75;99072.19;8321804;28;20252;-92
2021/10/09 08:16:50;;;;;;;23.87;14.23;;;;;;;16.23;39.96;99067.16;8322218;28;20205;-92
2021/10/09 08:20:59;;;;;;;24.17;13.87;;;;;;;16.02;39.01;99066.47;8321994;28;20205;-91
2021/10/09 08:25:23;;;;;;;20.97;13.30;;;;;;;16.44;38.92;99067.03;8322253;28;20388;-92
2021/10/09 08:42:29;;;;;;;20.47;12.07;;;;;;;17.02;36.30;99081.50;8321010;28;20201;-91
2021/10/09 08:46:33;;;;;;;21.27;11.90;;;;;;;17.00;35.64;99083.31;8321244;28;20390;-89
2021/10/09 08:50:36;;;;;;;19.03;11.83;;;;;;;17.37;35.74;99076.97;8321033;28;20229;-89
2021/10/09 08:54:41;;;;;;;17.87;12.00;;;;;;;16.94;35.59;99076.66;8320412;28;20208;-88
2021/10/09 08:58:44;;;;;;;20.13;12.00;;;;;;;18.34;34.45;99075.94;8320240;28;20204;-88
2021/10/09 09:03:03;;;;;;;24.50;12.37;;;;;;;17.77;34.38;99079.16;8320433;28;20402;-87
2021/10/09 09:33:47;;;;;;;18.43;11.40;;;;;;;19.97;31.36;99071.19;8319581;28;20224;-90
2021/10/09 09:42:24;;;;;;;15.70;10.47;;;;;;;18.97;32.36;99066.13;8320123;28;20357;-87
2021/10/09 09:46:28;;;;;;;18.27;10.50;;;;;;;20.21;32.12;99066.06;8322082;28;20197;-87
2021/10/09 09:50:32;;;;;;;20.30;10.97;;;;;;;19.97;31.31;99065.94;8351345;28;20245;-88
2021/10/09 09:54:38;;;;;;;26.40;12.10;;;;;;;20.03;31.27;99062.88;8350686;28;20201;-89
2021/10/09 09:58:43;;;;;;;16.13;10.43;;;;;;;20.19;31.55;99065.34;8351440;28;20193;-89
2021/10/09 10:02:49;;;;;;;19.03;9.83;;;;;;;20.94;30.65;99063.81;8332056;28;20212;-89
2021/10/09 10:06:52;;;;;;;18.53;10.73;;;;;;;19.91;30.64;99061.03;8328928;28;20198;-88
2021/10/09 10:10:58;;;;;;;20.93;10.73;;;;;;;20.55;30.64;99060.34;8350889;28;20232;-88
2021/10/09 10:15:01;;;;;;;17.83;10.33;;;;;;;20.34;30.43;99060.00;8344399;28;20253;-91
2021/10/09 10:19:04;;;;;;;16.07;10.10;;;;;;;20.68;30.42;99054.16;8318544;28;20202;-93
2021/10/09 10:23:06;;;;;;;16.40;10.97;;;;;;;20.26;30.15;99058.72;8318225;28;20204;-92
2021/10/09 10:27:36;;;;;;;20.73;10.17;;;;;;;20.77;30.66;99052.69;8324334;28;20197;-92
2021/10/09 10:32:12;;;;;;;23.70;10.20;;;;;;;20.94;31.13;99056.75;8335303;28;20731;-91
2021/10/09 10:36:36;;;;;;;20.90;10.40;;;;;;;20.63;29.87;99061.53;8332559;28;20204;-93
2021/10/09 10:40:46;;;;;;;18.40;9.83;;;;;;;20.45;30.56;99062.75;8332357;28;20441;-91
2021/10/09 10:44:57;;;;;;;16.90;9.40;;;;;;;20.55;31.46;99060.34;8346715;28;20211;-92
2021/10/09 10:49:02;;;;;;;19.10;9.00;;;;;;;20.69;41.58;99061.13;8351049;28;20387;-92
2021/10/09 10:53:08;;;;;;;12.10;7.40;;;;;;;21.41;38.20;99062.25;8339095;28;20223;-88
2021/10/09 10:57:21;;;;;;;18.00;9.33;;;;;;;21.41;36.65;99060.47;8340884;28;20193;-91
2021/10/09 11:01:28;;;;;;;18.87;8.07;;;;;;;21.66;36.76;99064.84;8343159;28;20404;-89
2021/10/09 11:05:32;;;;;;;24.03;8.57;;;;;;;21.72;36.95;99067.97;8319042;28;20264;-91
2021/10/09 11:09:50;;;;;;;17.03;9.20;;;;;;;21.30;34.63;99060.38;8327146;28;20391;-92
2021/10/09 11:13:54;;;;;;;18.87;8.83;;;;;;;21.02;33.27;99062.34;8323328;28;20244;-88
2021/10/09 11:18:00;;;;;;;13.27;8.70;;;;;;;20.83;33.39;99048.81;8328693;28;20204;-87
2021/10/09 11:22:03;;;;;;;20.30;9.00;;;;;;;20.73;32.90;99050.38;8349177;28;20388;-87
2021/10/09 11:26:06;;;;;;;14.40;9.40;;;;;;;20.21;33.82;99052.09;8340342;28;20201;-86
2021/10/09 11:30:10;;;;;;;18.37;9.50;;;;;;;20.28;33.32;99042.84;8328677;28;20213;-87
2021/10/09 11:34:15;;;;;;;17.30;8.47;;;;;;;20.61;33.16;99031.00;8338992;28;20237;-89
2021/10/09 11:38:19;;;;;;;15.33;8.73;;;;;;;20.43;32.44;99040.97;8331385;28;20197;-89
2021/10/09 11:42:25;;;;;;;15.83;9.33;;;;;;;20.21;32.72;99038.94;8337051;28;20492;-88
2021/10/09 11:46:45;;;;;;;17.27;8.93;;;;;;;20.24;33.05;99036.13;8349098;28;20209;-93
2021/10/09 11:55:15;;;;;;;19.87;9.70;;;;;;;19.57;33.75;99041.34;8355309;28;20205;-95
2021/10/09 11:59:38;;;;;;;17.90;8.53;;;;;;;19.78;32.80;99036.50;8354882;28;20204;-93
2021/10/09 12:03:41;;;;;;;17.73;9.23;;;;;;;19.75;33.35;99032.31;8328105;28;20234;-96
2021/10/09 12:08:04;;;;;;;10.83;8.37;;;;;;;19.70;33.28;99026.47;8322525;28;20467;-95
2021/10/09 12:12:17;;;;;;;15.93;8.50;;;;;;;20.08;32.93;99028.38;8322042;28;20438;-95
2021/10/09 12:16:24;;;;;;;13.37;8.40;;;;;;;20.03;33.49;99027.84;8320765;28;20205;-95
2021/10/09 12:20:28;;;;;;;17.83;8.87;;;;;;;19.58;32.95;99020.22;8319521;28;20259;-94
2021/10/09 12:24:33;;;;;;;12.63;8.20;;;;;;;19.54;33.48;99019.56;8321151;28;20220;-95
2021/10/09 12:29:11;;;;;;;19.13;8.80;;;;;;;19.99;31.62;99015.84;8321267;28;20406;-95
2021/10/09 12:33:38;;;;;;;13.53;8.10;;;;;;;19.64;31.81;99009.31;8321497;28;20252;-94
2021/10/09 12:37:54;;;;;;;14.13;6.90;;;;;;;20.03;31.76;99007.69;8321746;28;20208;-96
2021/10/09 12:41:58;;;;;;;19.13;7.20;;;;;;;20.18;30.51;99005.81;8322123;28;20272;-95
2021/10/09 12:46:01;;;;;;;10.73;6.93;;;;;;;19.99;30.16;99002.72;8322490;28;20525;-95
2021/10/09 12:50:05;;;;;;;12.60;6.10;;;;;;;20.26;30.73;98997.41;8330210;28;20371;-94
2021/10/09 12:54:08;;;;;;;15.30;6.90;;;;;;;20.17;30.50;99000.66;8322738;28;20411;-96
2021/10/09 12:58:13;;;;;;;12.47;6.83;;;;;;;20.14;29.83;99003.47;8320725;28;20208;-93
2021/10/09 13:02:16;;;;;;;10.43;6.40;;;;;;;20.07;29.59;98993.38;8320531;28;20224;-95
2021/10/09 13:06:19;;;;;;;12.43;6.27;;;;;;;20.07;29.96;98985.50;8321368;28;20221;-95
2021/10/09 13:10:22;;;;;;;11.23;6.40;;;;;;;20.33;28.79;98979.41;8320692;28;20236;-94
2021/10/09 13:14:27;;;;;;;10.80;5.90;;;;;;;20.60;29.08;98980.16;8319882;28;20251;-95
2021/10/09 13:18:30;;;;;;;12.70;6.40;;;;;;;20.21;29.05;98973.19;8320004;28;20214;-94
2021/10/09 13:22:48;;;;;;;12.13;5.77;;;;;;;19.68;28.29;98975.81;8319818;28;20335;-95
2021/10/09 13:27:14;;;;;;;15.50;5.67;;;;;;;19.83;27.93;98981.88;8319843;28;20395;-94
2021/10/09 13:31:20;;;;;;;13.50;5.73;;;;;;;20.31;27.80;98968.97;8319941;28;20203;-94
2021/10/09 13:35:23;;;;;;;10.20;5.50;;;;;;;20.31;27.08;98969.84;8319502;28;20237;-95
2021/10/09 13:39:26;;;;;;;11.83;5.00;;;;;;;20.34;27.12;98970.56;8319509;28;20523;-95
2021/10/09 13:43:29;;;;;;;9.33;4.03;;;;;;;20.35;24.86;98966.97;8319045;28;20212;-95
2021/10/09 13:47:33;;;;;;;8.83;4.10;;;;;;;20.33;24.27;98969.72;8319217;28;20201;-94
2021/10/09 13:51:36;;;;;;;7.23;3.77;;;;;;;19.90;24.86;98970.00;8319013;28;20490;-94
2021/10/09 13:55:40;;;;;;;7.50;3.83;;;;;;;19.83;23.85;98963.47;8318977;28;20224;-94
2021/10/09 13:59:43;;;;;;;6.03;3.70;;;;;;;20.38;23.81;98961.53;8318777;28;20387;-95
2021/10/09 14:03:49;;;;;;;7.53;3.67;;;;;;;19.89;24.66;98971.78;8318785;28;20201;-94
2021/10/09 14:07:52;;;;;;;9.60;3.90;;;;;;;19.72;24.93;98966.78;8318450;28;20205;-94
2021/10/09 14:11:56;;;;;;;9.77;4.03;;;;;;;19.83;25.23;98961.66;8318112;28;20272;-95
2021/10/09 14:15:59;;;;;;;8.30;4.03;;;;;;;19.65;25.38;98961.09;8318367;28;20206;-95
2021/10/09 14:20:04;;;;;;;10.63;4.03;;;;;;;19.60;25.70;98957.06;8318483;28;20503;-94
2021/10/09 14:24:07;;;;;;;9.53;4.10;;;;;;;20.17;26.06;98953.31;8317984;28;20281;-95
2021/10/09 14:28:11;;;;;;;8.20;4.13;;;;;;;20.01;25.46;98950.88;8317418;28;20217;-94
2021/10/09 14:32:14;;;;;;;15.80;4.57;;;;;;;19.87;25.18;98950.00;8317630;28;20229;-95
2021/10/09 14:36:21;;;;;;;9.60;4.80;;;;;;;19.96;24.99;98950.34;8318308;28;20215;-94
2021/10/09 14:40:26;;;;;;;8.53;4.37;;;;;;;19.44;26.09;98952.84;8317103;28;20205;-95
2021/10/09 14:44:33;;;;;;;7.90;4.10;;;;;;;19.37;25.69;98953.34;8317498;28;20311;-95
2021/10/09 14:48:38;;;;;;;8.63;4.00;;;;;;;19.30;25.80;98953.69;8317915;28;20216;-94
2021/10/09 14:52:50;;;;;;;9.77;4.20;;;;;;;19.21;26.52;98943.81;8338794;28;20223;-92
2021/10/09 15:18:59;;;;;;;11.10;4.60;;;;;;;18.42;27.84;98955.69;8317803;28;20205;-93
2021/10/09 15:23:02;;;;;;;11.10;4.20;;;;;;;18.23;28.52;98950.72;8317937;28;20204;-93
2021/10/09 15:27:07;;;;;;;9.13;4.20;;;;;;;18.04;28.50;98950.97;8317792;28;20206;-94
2021/10/09 15:31:12;;;;;;;9.77;4.37;;;;;;;17.83;29.07;98953.06;8318047;28;20205;-93
2021/10/09 15:35:15;;;;;;;8.43;4.97;;;;;;;17.72;29.56;98955.44;8318902;28;20229;-93
2021/10/09 15:39:18;;;;;;;8.93;4.47;;;;;;;17.65;29.93;98959.34;8329248;28;20205;-93
2021/10/09 15:43:23;;;;;;;11.17;4.60;;;;;;;17.52;30.25;98956.59;8324202;28;20201;-93
2021/10/09 15:47:25;;;;;;;7.77;4.13;;;;;;;17.48;30.46;98961.19;8317081;28;20209;-93
2021/10/09 15:51:28;;;;;;;8.87;4.73;;;;;;;17.36;30.60;98954.88;8316816;28;20384;-94
2021/10/09 15:55:31;;;;;;;9.23;4.63;;;;;;;17.39;30.66;98962.53;8322252;28;20229;-94
2021/10/09 15:59:36;;;;;;;12.93;5.10;;;;;;;17.15;31.14;98963.91;8322789;28;20208;-93
2021/10/09 16:03:39;;;;;;;10.57;5.10;;;;;;;17.17;31.33;98962.91;8322762;28;20229;-94
2021/10/09 16:07:42;;;;;;;9.10;5.23;;;;;;;16.94;31.95;98964.13;8322048;28;20213;-93
2021/10/09 16:11:45;;;;;;;16.50;5.90;;;;;;;16.87;32.42;98972.41;8321668;28;20245;-93
2021/10/09 16:15:49;;;;;;;10.00;5.10;;;;;;;16.98;32.56;98965.69;8321765;28;20507;-93
2021/10/09 16:19:52;;;;;;;15.70;4.83;;;;;;;16.91;32.40;98969.56;8322411;28;20504;-94
2021/10/09 16:23:55;;;;;;;11.63;5.27;;;;;;;17.00;32.46;98966.44;8322157;28;20208;-93
2021/10/09 16:27:58;;;;;;;13.57;6.43;;;;;;;17.02;33.39;98970.72;8321490;28;20290;-93
2021/10/09 16:32:03;;;;;;;10.47;5.90;;;;;;;17.05;34.41;98975.81;8321101;28;20511;-92
2021/10/09 16:36:06;;;;;;;13.63;5.63;;;;;;;16.99;34.32;98971.75;8321144;28;20229;-93
2021/10/09 16:40:10;;;;;;;9.77;5.63;;;;;;;16.97;35.04;98973.63;8320950;28;20295;-93
2021/10/09 16:44:13;;;;;;;13.37;5.83;;;;;;;16.87;34.68;98980.25;8320827;28;20204;-93
2021/10/09 16:48:17;;;;;;;11.37;6.20;;;;;;;16.81;34.60;98984.88;8320721;28;20205;-93
2021/10/09 16:52:20;;;;;;;10.43;5.53;;;;;;;16.75;35.96;98986.97;8325331;28;20205;-93
2021/10/09 16:56:23;;;;;;;11.40;6.90;;;;;;;16.61;35.95;98985.94;8320274;28;20248;-93
2021/10/09 17:00:26;;;;;;;11.63;5.40;;;;;;;16.60;36.41;98986.00;8320572;28;20476;-93
2021/10/09 17:04:30;;;;;;;8.53;5.20;;;;;;;16.47;36.85;98991.06;8287717;28;20206;-93
2021/10/09 17:08:33;;;;;;;9.33;5.57;;;;;;;16.36;37.30;98986.38;8287900;28;20202;-93
2021/10/09 17:12:36;;;;;;;12.73;6.27;;;;;;;16.01;37.02;98991.66;8287638;28;20383;-93
2021/10/09 17:16:39;;;;;;;11.07;6.83;;;;;;;16.19;37.31;98997.69;8287630;28;20260;-93
2021/10/09 17:20:53;;;;;;;13.83;6.70;;;;;;;16.16;37.05;98997.00;8287894;28;20277;-93
2021/10/09 17:24:56;;;;;;;10.53;6.10;;;;;;;16.08;37.75;98996.56;8304278;28;20207;-92
2021/10/09 17:28:59;;;;;;;14.30;6.33;;;;;;;16.03;38.06;98999.41;8328677;28;20415;-90
2021/10/09 17:33:02;;;;;;;10.70;5.10;;;;;;;16.36;44.67;99007.28;8332089;28;20204;-83
2021/10/09 17:37:07;;;;;;;11.50;5.10;;;;;;;16.83;43.87;99008.38;8324245;28;20201;-85
2021/10/09 17:41:10;;;;;;;12.60;6.47;;;;;;;16.18;38.75;99010.81;8327437;28;20201;-93
2021/10/09 17:45:13;;;;;;;16.30;6.50;;;;;;;16.01;39.00;99019.50;8319319;28;20495;-92
2021/10/09 17:49:16;;;;;;;12.37;6.10;;;;;;;15.88;39.51;99023.66;8348562;28;20207;-93
2021/10/09 17:53:20;;;;;;;11.77;6.93;;;;;;;15.67;40.00;99028.13;8351569;28;20228;-90
2021/10/09 17:57:23;;;;;;;12.37;8.10;;;;;;;15.61;40.40;99026.66;8337642;28;20359;-93
2021/10/09 18:01:30;;;;;;;12.30;7.63;;;;;;;15.47;40.68;99027.31;8319084;28;20563;-87
2021/10/09 18:05:33;;;;;;;11.67;6.70;;;;;;;15.44;40.41;99032.72;8323387;28;20263;-84
2021/10/09 18:09:38;;;;;;;16.30;7.20;;;;;;;15.31;39.19;99031.59;8317233;28;20205;-83
2021/10/09 18:13:41;;;;;;;15.57;6.67;;;;;;;15.19;38.76;99027.75;8316833;28;20241;-84
2021/10/09 18:17:44;;;;;;;14.90;7.70;;;;;;;15.23;38.45;99026.69;8316315;28;20211;-85
2021/10/09 18:21:46;;;;;;;12.13;6.17;;;;;;;15.07;38.97;99028.34;8317452;28;20220;-88
2021/10/09 18:25:56;;;;;;;14.47;7.07;;;;;;;15.00;38.74;99028.63;8329372;28;20201;-88
2021/10/09 18:30:00;;;;;;;17.37;6.60;;;;;;;15.04;38.95;99037.13;8320368;28;20201;-90
2021/10/09 18:34:02;;;;;;;14.80;8.07;;;;;;;15.16;38.95;99026.16;8326643;28;20220;-88
2021/10/09 18:38:05;;;;;;;16.17;7.27;;;;;;;15.25;38.91;99032.72;8325368;28;20201;-87
2021/10/09 18:42:11;;;;;;;14.67;6.60;;;;;;;15.18;38.95;99041.75;8317950;28;20205;-87
2021/10/09 18:46:13;;;;;;;15.60;6.50;;;;;;;15.14;39.13;99032.38;8317362;28;20491;-88
2021/10/09 18:50:17;;;;;;;16.03;8.80;;;;;;;15.10;39.43;99031.66;8335089;28;20204;-88
2021/10/09 18:54:19;;;;;;;14.13;7.63;;;;;;;14.94;39.88;99035.88;8327236;28;20231;-87
2021/10/09 18:58:24;;;;;;;14.80;7.07;;;;;;;15.12;39.77;99034.22;8329940;28;20192;-88
2021/10/09 19:02:27;;;;;;;14.13;7.90;;;;;;;14.89;40.60;99037.84;8321860;28;20212;-89
2021/10/09 19:06:30;;;;;;;19.10;9.33;;;;;;;14.77;40.97;99034.84;8316708;28;20208;-88
2021/10/09 19:10:33;;;;;;;16.13;11.30;;;;;;;14.58;41.70;99039.19;8316683;28;20225;-86
2021/10/09 19:14:38;;;;;;;19.10;11.80;;;;;;;14.57;41.68;99038.34;8316047;28;20540;-87
2021/10/09 19:18:41;;;;;;;18.00;12.17;;;;;;;14.35;42.00;99037.56;8316179;28;20208;-87
2021/10/09 19:22:47;;;;;;;18.27;8.90;;;;;;;14.31;42.22;99039.44;8329534;28;20403;-87
2021/10/09 19:26:50;;;;;;;16.07;9.53;;;;;;;14.17;42.40;99039.19;8333304;28;20200;-87
2021/10/09 19:30:55;;;;;;;12.00;9.50;;;;;;;14.14;43.24;99040.16;8338454;28;20490;-87
2021/10/09 19:35:01;;;;;;;13.30;9.70;;;;;;;13.98;43.49;99039.09;8336103;28;20220;-87
2021/10/09 19:39:04;;;;;;;17.33;9.40;;;;;;;13.94;43.78;99056.59;8339009;28;20260;-87
2021/10/09 19:43:07;;;;;;;18.40;10.17;;;;;;;13.91;43.33;99048.91;8338468;28;20381;-87
2021/10/09 19:47:13;;;;;;;18.37;10.83;;;;;;;13.86;43.74;99050.88;8338884;28;20197;-87
2021/10/09 19:51:20;;;;;;;22.43;15.73;;;;;;;13.85;43.83;99047.41;8336043;28;20205;-85
2021/10/09 19:55:24;;;;;;;22.80;15.27;;;;;;;13.74;43.74;99054.78;8338209;28;20225;-83
2021/10/09 19:59:27;;;;;;;21.65;14.70;;;;;;;13.95;42.93;99049.63;8336612;28;20758;-86
2021/10/09 20:03:31;;;;;;;14.57;12.20;;;;;;;13.66;43.44;99057.69;8336977;28;20198;-87
2021/10/09 20:07:35;;;;;;;19.50;11.53;;;;;;;13.57;42.65;99060.66;8337772;28;20321;-86
2021/10/09 20:11:46;;;;;;;26.17;12.60;;;;;;;13.51;43.01;99060.91;8337433;28;20412;-86
2021/10/09 20:15:50;;;;;;;24.90;16.60;;;;;;;13.47;43.08;99054.13;8335787;28;20408;-87
2021/10/09 20:19:59;;;;;;;21.40;11.73;;;;;;;13.42;43.42;99051.72;8337520;28;20219;-85
2021/10/09 20:24:02;;;;;;;12.03;7.93;;;;;;;13.46;41.59;99049.81;8334897;28;20201;-84
2021/10/09 20:28:06;;;;;;;13.48;8.15;;;;;;;14.04;39.59;99047.50;8334586;28;20423;-87
2021/10/09 20:32:10;;;;;;;15.33;7.47;;;;;;;13.68;39.74;99050.69;8346480;28;20196;-86
2021/10/09 20:36:15;;;;;;;9.93;6.77;;;;;;;13.60;39.69;99052.75;8353326;28;20227;-86
2021/10/09 20:40:20;;;;;;;11.13;6.77;;;;;;;14.23;51.99;99046.75;8352172;28;20730;-85
2021/10/09 20:44:23;;;;;;;12.10;6.60;;;;;;;13.71;39.04;99056.66;8336235;28;20211;-85
2021/10/09 20:48:25;;;;;;;10.98;7.07;;;;;;;14.17;37.84;99054.81;8334586;28;20427;-84
2021/10/09 20:52:30;;;;;;;21.80;13.23;;;;;;;13.52;41.01;99061.75;8336608;28;20215;-84
2021/10/09 20:56:33;;;;;;;20.90;12.90;;;;;;;13.15;42.41;99066.56;8336233;28;20507;-85
2021/10/09 21:00:36;;;;;;;18.53;12.40;;;;;;;13.05;42.46;99067.81;8335707;28;20192;-84
2021/10/09 21:04:40;;;;;;;17.73;12.97;;;;;;;12.98;43.09;99062.00;8335352;28;20340;-84
2021/10/09 21:08:45;;;;;;;17.27;11.50;;;;;;;12.96;42.79;99061.19;8330295;28;20484;-86
2021/10/09 21:12:53;;;;;;;18.50;10.50;;;;;;;12.88;43.02;99063.25;8320133;28;20521;-86